• Join FlightAware (Why Join?)
  • Login
  • US Flag 
12:38PM EDT


 

Airport Tracker/Info


-or-


 

Live Flight TrackerFlight Track Log ✈ AVN21 ✈ 02-Mar-2014 ✈ YBBN / BNE - NVVV / VLI

Flight Track Log - Related Links

Times and Time Zones

All times are in EST time to prevent confusion due to time zone crossing. See the AVN21 flight status page for this flight to view local times or setup timezone preferences in your user account.

Time Position Orientation Groundspeed Altitude Reporting Facility
EST Latitude Longitude Course Direction KTS MPH feet Rate Location/Type
05:39AM -27.3788 153.1319 27° Northeast 170 196 200  Level FlightAware ADS-B (YENO)
05:40AM -27.3660 153.1393 27° Northeast 3,100 1,680 Climbing Aus ATC (Calculated)
05:40AM -27.3639 153.1405 32° Northeast 172 198 800 -3,660 Descending FlightAware ADS-B (YENO)
05:40AM -27.3508 153.1528 42° Northeast 178 205 1,400 1,380 Climbing FlightAware ADS-B (YENO)
05:40AM -27.3377 153.1664 43° Northeast 198 228 1,800 1,620 Climbing FlightAware ADS-B (YENO)
05:41AM -27.3250 153.1798 47° Northeast 208 239 2,500 2,100 Climbing FlightAware ADS-B (YENO)
05:41AM -27.3137 153.1989 65° Northeast 212 244 3,200 1,800 Climbing FlightAware ADS-B (YENO)
05:41AM -27.3067 153.2206 72° East 233 268 3,700 1,260 Climbing FlightAware ADS-B (YENO)
05:42AM -27.3006 153.2436 74° East 256 295 4,100 1,620 Climbing FlightAware ADS-B (YENO)
05:42AM -27.2934 153.2701 73° East 266 306 4,800 2,520 Climbing FlightAware ADS-B (YENO)
05:42AM -27.2852 153.2987 72° East 267 307 5,800 2,760 Climbing FlightAware ADS-B (YENO)
05:43AM -27.2793 153.3193 73° East 270 311 6,700 2,580 Climbing FlightAware ADS-B (YENO)
05:43AM -27.2716 153.3471 73° East 276 318 7,500 2,520 Climbing FlightAware ADS-B (YENO)
05:43AM -27.2624 153.3803 73° East 283 326 8,400 2,400 Climbing FlightAware ADS-B (YENO)
05:44AM -27.2549 153.4075 73° East 292 336 9,100 2,460 Climbing FlightAware ADS-B (YENO)
05:44AM -27.2467 153.4366 74° East 293 337 10,000 3,000 Climbing FlightAware ADS-B (YTWB)
05:44AM -27.2418 153.4540 73° East 306 352 10,400 1,500 Climbing FlightAware ADS-B (LICP)
05:44AM -27.2378 153.4680 74° East 310 357 10,500 660 Climbing FlightAware ADS-B (YTWB)
05:45AM -27.2287 153.5001 72° East 341 392 10,800 1,440 Climbing FlightAware ADS-B (YENO)
05:45AM -27.2214 153.5258 72° East 353 406 11,200 1,680 Climbing FlightAware ADS-B (LICP)
05:45AM -27.2191 153.5338 73° East 356 410 11,400 1,320 Climbing FlightAware ADS-B (YENO)
05:45AM -27.2155 153.5466 74° East 355 409 11,600 2,580 Climbing FlightAware ADS-B (YTWB)
05:46AM -27.1947 153.6191 74° East 365 420 13,400 3,060 Climbing Aus ATC (RADAR)
05:46AM -27.1943 153.6215 71° East 369 425 13,700 3,000 Climbing FlightAware ADS-B (LICP)
05:46AM -27.1937 153.6233 70° East 371 427 13,900 1,500 Climbing FlightAware ADS-B (YENO)
05:46AM -27.1728 153.6775 61° Northeast 383 441 14,500 2,220 Climbing FlightAware ADS-B (YENO)
05:47AM -27.1667 153.6888 56° Northeast 392 451 15,000 2,100 Climbing FlightAware ADS-B (LICP)
05:47AM -27.1525 153.7129 57° Northeast 390 449 15,200 1,800 Climbing FlightAware ADS-B (YTWB)
05:47AM -27.1379 153.7374 56° Northeast 398 458 15,700 2,400 Climbing FlightAware ADS-B (LICP)
05:47AM -27.1350 153.7422 56° Northeast 399 459 16,000 2,160 Climbing FlightAware ADS-B (YENO)
05:48AM -27.1010 153.7991 56° Northeast 403 464 17,200 2,400 Climbing FlightAware ADS-B (YTWB)
05:48AM -27.0703 153.8506 56° Northeast 406 467 18,400 2,340 Climbing FlightAware ADS-B (YENO)
05:49AM -27.0309 153.9156 56° Northeast 412 474 19,800 2,220 Climbing Aus ATC (RADAR)
05:49AM -27.0165 153.9407 56° Northeast 426 490 20,100 1,320 Climbing FlightAware ADS-B (LICP)
05:49AM -26.9823 153.9980 56° Northeast 439 505 20,800 1,380 Climbing FlightAware ADS-B (YENO)
05:50AM -26.9594 154.0361 57° Northeast 442 509 21,400 1,800 Climbing FlightAware ADS-B (YTWB)
05:50AM -26.9376 154.0726 57° Northeast 447 514 22,000 1,920 Climbing FlightAware ADS-B (YTWB)
05:51AM -26.9066 154.1243 56° Northeast 457 526 23,200 1,920 Climbing FlightAware ADS-B (YENO)
05:51AM -26.8527 154.2132 56° Northeast 456 525 24,300 1,680 Climbing Aus ATC (RADAR)
05:51AM -26.8423 154.2316 56° Northeast 464 534 24,500 1,620 Climbing FlightAware ADS-B (YENO)
05:52AM -26.8046 154.2934 56° Northeast 464 534 25,400 1,380 Climbing Aus ATC (RADAR)
05:52AM -26.7958 154.3090 56° Northeast 472 543 25,400 1,320 Level FlightAware ADS-B (YENO)
05:53AM -26.7180 154.4366 56° Northeast 478 550 27,000 1,440 Climbing Aus ATC (RADAR)
05:54AM -26.6613 154.5314 56° Northeast 488 562 28,000 1,200 Climbing Aus ATC (RADAR)
05:54AM -26.6448 154.5588 56° Northeast 486 559 28,200 1,200 Climbing FlightAware ADS-B (YENO)
05:55AM -26.5839 154.6588 56° Northeast 495 570 29,200 1,080 Climbing Aus ATC (RADAR)
05:56AM -26.5239 154.7561 55° Northeast 505 581 29,900 1,260 Climbing Aus ATC (RADAR)
05:56AM -26.4721 154.8442 57° Northeast 507 583 31,000 1,620 Climbing Aus ATC (RADAR)
05:57AM -26.4138 154.9411 56° Northeast 498 573 32,200 1,440 Climbing Aus ATC (RADAR)
05:57AM -26.3813 154.9950 56° Northeast 499 574 32,700 1,500 Climbing Aus ATC (RADAR)
05:58AM -26.3359 155.0696 56° Northeast 496 571 33,700 1,440 Climbing Aus ATC (RADAR)
05:59AM -26.2865 155.1473 56° Northeast 493 567 34,500 1,440 Climbing FlightAware ADS-B (YENO)
05:59AM -26.2385 155.2249 56° Northeast 486 559 35,500 1,320 Climbing Aus ATC (RADAR)
06:00AM -26.1937 155.2974 55° Northeast 484 557 36,100 1,020 Climbing Aus ATC (RADAR)
06:00AM -26.1427 155.3803 56° Northeast 484 557 36,800 1,020 Climbing Aus ATC (RADAR)
06:01AM -26.0982 155.4525 56° Northeast 482 555 37,400 900 Climbing Aus ATC (RADAR)
06:02AM -26.0536 155.5246 55° Northeast 482 555 37,900 780 Climbing Aus ATC (RADAR)
06:02AM -26.0152 155.5862 55° Northeast 481 554 38,300 720 Climbing Aus ATC (RADAR)
06:03AM -25.9706 155.6583 55° Northeast 482 555 38,700 720 Climbing Aus ATC (RADAR)
06:03AM -25.9257 155.7297 55° Northeast 481 554 39,200 240 Climbing Aus ATC (RADAR)
06:04AM -25.8628 155.8327 56° Northeast 478 550 39,100 -120 Descending Aus ATC (RADAR)
06:05AM -25.8310 155.8837 55° Northeast 477 549 39,100  Level Aus ATC (RADAR)
06:05AM -25.7917 155.9435 54° Northeast 476 548 39,100  Level Aus ATC (RADAR)
06:06AM -25.7277 156.0442 55° Northeast 473 544 39,100  Level Aus ATC (RADAR)
06:06AM -25.6848 156.1156 56° Northeast 471 542 39,100  Level Aus ATC (RADAR)
06:07AM -25.6374 156.1989 58° Northeast 469 540 39,100  Level Aus ATC (RADAR)
06:08AM -25.6077 156.2501 57° Northeast 467 537 39,100  Level Aus ATC (RADAR)
06:08AM -25.5670 156.3221 58° Northeast 466 536 39,100 -120 Level Aus ATC (RADAR)
06:09AM -25.5023 156.4338 57° Northeast 464 534 39,000 -120 Descending Aus ATC (RADAR)
06:09AM -25.4729 156.4846 57° Northeast 464 534 39,000  Level Aus ATC (RADAR)
06:10AM -25.4315 156.5556 57° Northeast 464 534 39,000  Level Aus ATC (RADAR)
06:11AM -25.3838 156.6369 57° Northeast 466 536 39,000  Level Aus ATC (RADAR)
06:11AM -25.3417 156.7080 57° Northeast 467 537 39,000  Level Aus ATC (RADAR)
06:12AM -25.2986 156.7778 56° Northeast 466 536 39,000  Level Aus ATC (RADAR)
06:13AM -25.2502 156.8585 56° Northeast 465 535 39,000  Level Aus ATC (RADAR)
06:13AM -25.2117 156.9176 54° Northeast 467 537 39,000  Level Aus ATC (RADAR)
06:14AM -25.1387 157.0237 53° Northeast 518 596 39,000  Level Aus ATC (RADAR)
06:14AM -25.1190 157.0674 64° Northeast 471 542 39,000  Level Aus ATC (RADAR)
06:15AM -25.0864 157.1159 53° Northeast 467 537 39,000  Level Aus ATC (RADAR)
06:15AM -25.0523 157.1783 59° Northeast 467 537 39,000  Level Aus ATC (RADAR)
06:16AM -24.9980 157.2699 57° Northeast 467 537 39,000  Level Aus ATC (RADAR)
06:16AM -24.9733 157.3086 55° Northeast 466 536 39,000  Level Aus ATC (RADAR)
06:19AM -24.7664 157.6561 236° Southwest 39,000  Level Aus ATC (Calculated)
06:21AM -24.8730 157.4806 236° Southwest  Level FlightAware Approximate
06:22AM -24.9388 157.3718 236° Southwest  Level FlightAware Approximate
06:22AM -24.5562 158.0069 236° Southwest 39,000  Level Aus ATC (Calculated)
06:24AM -24.6629 157.8317 236° Southwest  Level FlightAware Approximate
06:25AM -24.7288 157.7232 236° Southwest  Level FlightAware Approximate
06:25AM -24.3274 158.3855 236° Southwest 39,000  Level Aus ATC (Calculated)
06:27AM -24.4322 158.2145 236° Southwest  Level FlightAware Approximate
06:28AM -24.4983 158.1063 236° Southwest  Level FlightAware Approximate
06:29AM -24.5643 157.9980 236° Southwest  Level FlightAware Approximate
06:30AM -24.6302 157.8896 236° Southwest  Level FlightAware Approximate
06:31AM -24.6961 157.7811 236° Southwest  Level FlightAware Approximate
06:32AM -24.7618 157.6725 236° Southwest  Level FlightAware Approximate
06:33AM -24.8275 157.5637 236° Southwest  Level FlightAware Approximate
06:34AM -24.8931 157.4549 236° Southwest  Level FlightAware Approximate
06:35AM -24.9587 157.3459 236° Southwest  Level FlightAware Approximate
06:35AM -23.6490 159.4850 236° Southwest 39,000  Level Aus ATC (Calculated)
06:36AM -23.7159 159.3781 236° Southwest  Level FlightAware Approximate
06:36AM -23.5096 159.7081 236° Southwest 39,000  Level Aus ATC (Calculated)
06:38AM -23.5965 159.5696 236° Southwest  Level FlightAware Approximate
06:39AM -23.6625 159.4643 236° Southwest  Level FlightAware Approximate
06:40AM -23.7284 159.3588 236° Southwest  Level FlightAware Approximate
06:41AM -23.7943 159.2533 236° Southwest  Level FlightAware Approximate
06:42AM -23.8600 159.1476 236° Southwest  Level FlightAware Approximate
06:43AM -23.7946 159.2536 57° Northeast  Level Estimated
06:44AM -23.7297 159.3598 56° Northeast  Level FlightAware Approximate
06:45AM -23.6648 159.4659 56° Northeast  Level FlightAware Approximate
06:46AM -23.5998 159.5720 56° Northeast  Level FlightAware Approximate
06:47AM -23.6648 159.4659 236° Southwest  Level FlightAware Approximate
06:48AM -23.5998 159.5720 56° Northeast  Level FlightAware Approximate
06:48AM -22.6528 161.0575 235° Southwest 39,000  Level Aus ATC (Calculated)
06:50AM -22.7600 160.8914 235° Southwest  Level FlightAware Approximate
06:51AM -22.8269 160.7874 235° Southwest  Level FlightAware Approximate
06:52AM -22.8937 160.6833 235° Southwest  Level FlightAware Approximate
06:52AM -22.3765 161.4854 235° Southwest 39,000  Level Aus ATC (Calculated)
06:53AM -22.4437 161.3820 235° Southwest  Level FlightAware Approximate
06:54AM -22.5109 161.2784 235° Southwest  Level FlightAware Approximate
06:55AM -22.5780 161.1748 235° Southwest  Level FlightAware Approximate
06:56AM -22.6450 161.0711 235° Southwest  Level FlightAware Approximate
06:57AM -22.7120 160.9672 235° Southwest  Level FlightAware Approximate
06:58AM -22.7789 160.8633 235° Southwest  Level FlightAware Approximate
06:59AM -22.8457 160.7593 235° Southwest  Level FlightAware Approximate
07:00AM -22.9125 160.6551 235° Southwest  Level FlightAware Approximate
07:01AM -22.9792 160.5509 235° Southwest  Level FlightAware Approximate
07:02AM -23.0458 160.4465 235° Southwest  Level FlightAware Approximate
07:02AM -21.5995 162.6705 234° Southwest 39,000  Level Aus ATC (Calculated)
07:03AM -21.6675 162.5681 234° Southwest  Level FlightAware Approximate
07:04AM -21.7353 162.4657 234° Southwest  Level FlightAware Approximate
07:05AM -21.8031 162.3631 235° Southwest  Level FlightAware Approximate
07:06AM -21.8708 162.2605 235° Southwest  Level FlightAware Approximate
07:07AM -21.9385 162.1578 235° Southwest  Level FlightAware Approximate
07:08AM -22.0061 162.0549 235° Southwest  Level FlightAware Approximate
07:09AM -22.0736 161.9520 235° Southwest  Level FlightAware Approximate
07:10AM -22.1411 161.8490 235° Southwest  Level FlightAware Approximate
07:11AM -22.2085 161.7458 235° Southwest  Level FlightAware Approximate
07:12AM -22.2758 161.6426 235° Southwest  Level FlightAware Approximate
07:13AM -22.3431 161.5393 235° Southwest  Level FlightAware Approximate
07:14AM -22.4103 161.4359 235° Southwest  Level FlightAware Approximate
07:15AM -22.4775 161.3323 235° Southwest  Level FlightAware Approximate
07:16AM -22.4107 161.4361 56° Northeast  Level Estimated
07:17AM -22.3435 161.5396 55° Northeast  Level FlightAware Approximate
07:18AM -22.2762 161.6429 55° Northeast  Level FlightAware Approximate
07:19AM -22.2089 161.7461 55° Northeast  Level FlightAware Approximate
07:20AM -22.1415 161.8492 55° Northeast  Level FlightAware Approximate
07:21AM -22.0740 161.9523 55° Northeast  Level FlightAware Approximate
07:22AM -22.0064 162.0552 55° Northeast  Level FlightAware Approximate
07:23AM -21.9388 162.1580 55° Northeast  Level FlightAware Approximate
07:24AM -21.8712 162.2608 55° Northeast  Level FlightAware Approximate
07:25AM -21.8034 162.3634 55° Northeast  Level FlightAware Approximate
07:26AM -21.7356 162.4659 55° Northeast  Level FlightAware Approximate
07:27AM -21.6678 162.5684 55° Northeast  Level FlightAware Approximate
07:28AM -21.5999 162.6707 54° Northeast  Level FlightAware Approximate
07:29AM -21.5319 162.7730 54° Northeast  Level FlightAware Approximate
07:30AM -21.4638 162.8751 54° Northeast  Level FlightAware Approximate
07:31AM -21.3957 162.9772 54° Northeast  Level FlightAware Approximate
07:32AM -21.3276 163.0791 54° Northeast  Level FlightAware Approximate
07:33AM -21.3957 162.9772 234° Southwest  Level FlightAware Approximate
07:34AM -21.3276 163.0791 54° Northeast  Level FlightAware Approximate
07:35AM -21.3957 162.9772 234° Southwest  Level FlightAware Approximate
07:36AM -21.3276 163.0791 54° Northeast  Level FlightAware Approximate
07:37AM -21.3957 162.9772 234° Southwest  Level FlightAware Approximate
07:38AM -21.3276 163.0791 54° Northeast  Level FlightAware Approximate
07:39AM -21.3957 162.9772 234° Southwest  Level FlightAware Approximate
07:40AM -21.3276 163.0791 54° Northeast  Level FlightAware Approximate
07:41AM -21.3957 162.9772 234° Southwest  Level FlightAware Approximate
07:42AM -21.3276 163.0791 54° Northeast  Level FlightAware Approximate
07:43AM -21.3957 162.9772 234° Southwest  Level FlightAware Approximate
07:44AM -21.3276 163.0791 54° Northeast  Level FlightAware Approximate
07:45AM -21.3957 162.9772 234° Southwest  Level FlightAware Approximate
07:46AM -21.3276 163.0791 54° Northeast  Level FlightAware Approximate
07:47AM -21.3957 162.9772 234° Southwest  Level FlightAware Approximate
07:48AM -21.3276 163.0791 54° Northeast  Level FlightAware Approximate
07:49AM -21.3957 162.9772 234° Southwest  Level FlightAware Approximate
07:50AM -21.3281 163.0795 54° Northeast  Level Estimated
07:51AM -21.2591 163.1808 54° Northeast  Level FlightAware Approximate
07:52AM -21.1902 163.2821 54° Northeast  Level FlightAware Approximate
07:53AM -21.1212 163.3833 54° Northeast  Level FlightAware Approximate
07:54AM -21.0521 163.4843 54° Northeast  Level FlightAware Approximate
07:55AM -20.9830 163.5853 54° Northeast  Level FlightAware Approximate
07:56AM -20.9138 163.6862 54° Northeast  Level FlightAware Approximate
07:57AM -20.8445 163.7870 54° Northeast  Level FlightAware Approximate
07:58AM -20.7752 163.8877 54° Northeast  Level FlightAware Approximate
07:59AM -20.7059 163.9883 54° Northeast  Level FlightAware Approximate
08:00AM -20.6364 164.0888 54° Northeast  Level FlightAware Approximate
08:01AM -20.5669 164.1892 54° Northeast  Level FlightAware Approximate
08:02AM -20.4974 164.2895 54° Northeast  Level FlightAware Approximate
08:03AM -20.4278 164.3898 53° Northeast  Level FlightAware Approximate
08:04AM -20.3581 164.4899 53° Northeast  Level FlightAware Approximate
08:05AM -20.2884 164.5900 53° Northeast  Level FlightAware Approximate
08:06AM -20.2187 164.6899 53° Northeast  Level FlightAware Approximate
08:07AM -20.1488 164.7898 53° Northeast  Level FlightAware Approximate
08:08AM -20.0789 164.8896 53° Northeast  Level FlightAware Approximate
08:09AM -20.0090 164.9893 53° Northeast  Level FlightAware Approximate
08:10AM -19.9390 165.0889 53° Northeast  Level FlightAware Approximate
08:11AM -19.8689 165.1884 53° Northeast  Level FlightAware Approximate
08:12AM -19.7988 165.2879 53° Northeast  Level FlightAware Approximate
08:13AM -19.7287 165.3872 53° Northeast  Level FlightAware Approximate
08:14AM -19.6585 165.4865 53° Northeast  Level FlightAware Approximate
08:15AM -19.5882 165.5856 53° Northeast  Level FlightAware Approximate
08:16AM -19.5179 165.6847 53° Northeast  Level FlightAware Approximate
08:17AM -19.4475 165.7837 53° Northeast  Level FlightAware Approximate
08:18AM -19.3771 165.8826 53° Northeast  Level FlightAware Approximate
08:19AM -19.3066 165.9814 53° Northeast  Level FlightAware Approximate
08:20AM -19.2360 166.0802 53° Northeast  Level FlightAware Approximate
08:21AM -19.1654 166.1788 53° Northeast  Level FlightAware Approximate
08:22AM -19.0948 166.2774 53° Northeast  Level FlightAware Approximate
08:23AM -19.0241 166.3759 53° Northeast  Level FlightAware Approximate
08:24AM -18.9533 166.4743 53° Northeast  Level FlightAware Approximate
08:25AM -18.8825 166.5726 53° Northeast  Level FlightAware Approximate
08:26AM -18.8117 166.6709 53° Northeast  Level FlightAware Approximate
08:27AM -18.7408 166.7690 53° Northeast  Level FlightAware Approximate
08:28AM -18.6698 166.8671 53° Northeast  Level FlightAware Approximate
08:29AM -18.5988 166.9651 53° Northeast  Level FlightAware Approximate
08:30AM -18.5278 167.0630 53° Northeast  Level FlightAware Approximate
08:31AM -18.4566 167.1608 53° Northeast  Level FlightAware Approximate
08:32AM -18.3855 167.2586 53° Northeast  Level FlightAware Approximate
08:33AM -18.3143 167.3562 52° Northeast  Level FlightAware Approximate
08:34AM -18.2430 167.4538 52° Northeast  Level FlightAware Approximate
08:35AM -18.1717 167.5513 52° Northeast  Level FlightAware Approximate
08:36AM -18.1004 167.6488 52° Northeast  Level FlightAware Approximate
08:37AM -18.0290 167.7461 52° Northeast  Level FlightAware Approximate
08:38AM -17.9575 167.8434 52° Northeast  Level FlightAware Approximate
08:39AM -17.8860 167.9406 52° Northeast  Level FlightAware Approximate
08:40AM -17.8145 168.0377 52° Northeast  Level FlightAware Approximate